Time;durP1;ratioP1;P1;durP2;ratioP2;P2;SDS_P1;SDS_P2;PMS_P1;PMS_P2;Temp;Humidity;BMP_temperature;BMP_pressure;BME280_temperature;BME280_humidity;BME280_pressure;Samples;Min_cycle;Max_cycle;Signal;HPM_P1;HPM_P2
2023/04/10 00:02:06;;;;;;;;;;;;;;;29.03;62.84;100998.13;5073327;27;70334;-48
2023/04/10 00:04:36;;;;;;;;;;;;;;;29.39;64.62;101066.19;5079204;27;66118;-47
2023/04/10 00:07:07;;;;;;;;;;;;;;;29.46;68.82;101070.78;5077304;27;70448;-47
2023/04/10 00:10:00;;;;;;;;;;;;;;;29.51;69.69;101065.59;5058986;27;66370;-47
2023/04/10 00:12:42;;;;;;;;;;;;;;;29.57;69.14;101075.56;5060824;27;70337;-47
2023/04/10 00:15:13;;;;;;;;;;;;;;;29.62;68.91;101075.78;5076304;27;66718;-44
2023/04/10 00:17:54;;;;;;;;;;;;;;;29.66;68.62;101090.56;5093203;27;69861;-44
2023/04/10 00:20:25;;;;;;;;;;;;;;;29.69;68.11;101087.44;5079132;27;64909;-46
2023/04/10 00:22:55;;;;;;;;;;;;;;;29.74;68.35;101087.66;5077601;27;70010;-45
2023/04/10 00:25:25;;;;;;;;;;;;;;;29.77;68.92;101098.06;5078249;27;67069;-46
2023/04/10 00:27:55;;;;;;;;;;;;;;;29.80;69.33;101097.63;5077769;27;70408;-45
2023/04/10 00:30:25;;;;;;;;;;;;;;;29.40;69.24;101032.72;5059566;28;66801;-44
2023/04/10 00:32:55;;;;;;;;;;;;;;;29.89;70.56;101100.13;5053627;27;70384;-44
2023/04/10 00:35:25;;;;;;;;;;;;;;;29.92;70.32;101105.13;5075727;27;66817;-44
2023/04/10 00:37:56;;;;;;;;;;;;;;;29.95;70.22;101105.56;5077286;27;70300;-47
2023/04/10 00:40:29;;;;;;;;;;;;;;;29.97;70.32;101105.34;5058157;27;66093;-45
2023/04/10 00:42:59;;;;;;;;;;;;;;;29.97;67.20;101105.34;5078211;27;69991;-43
2023/04/10 00:45:30;;;;;;;;;;;;;;;29.97;65.63;101108.03;5060019;28;66991;-44
2023/04/10 00:48:00;;;;;;;;;;;;;;;30.02;65.19;101121.78;5061124;28;70673;-44
2023/04/10 00:50:30;;;;;;;;;;;;;;;30.04;64.34;101125.94;5059630;28;67035;-43
2023/04/10 00:53:02;;;;;;;;;;;;;;;30.07;63.53;101130.09;5054504;28;70247;-44
2023/04/10 00:55:32;;;;;;;;;;;;;;;30.11;63.04;101131.34;5045048;28;67109;-43
2023/04/10 00:58:03;;;;;;;;;;;;;;;30.12;62.46;101127.59;5074420;27;69104;-43
2023/04/10 01:00:33;;;;;;;;;;;;;;;30.16;62.55;101139.66;5076970;27;66696;-43
2023/04/10 01:03:03;;;;;;;;;;;;;;;30.18;62.23;101140.28;5059850;27;70786;-44
2023/04/10 01:05:41;;;;;;;;;;;;;;;30.22;62.05;101140.72;5060624;28;65995;-44
2023/04/10 01:08:24;;;;;;;;;;;;;;;30.24;61.88;101136.78;5076240;27;69925;-44
2023/04/10 01:11:12;;;;;;;;;;;;;;;30.27;61.86;101136.34;5077011;27;65764;-45
2023/04/10 01:14:05;;;;;;;;;;;;;;;30.28;61.60;101132.63;5079292;27;69258;-44
2023/04/10 01:16:43;;;;;;;;;;;;;;;30.33;60.89;101139.25;5068546;27;65394;-45
2023/04/10 01:19:19;;;;;;;;;;;;;;;30.33;61.11;101145.50;5077661;27;70511;-44
2023/04/10 01:21:50;;;;;;;;;;;;;;;30.35;61.20;101138.00;5077188;27;65402;-41
2023/04/10 01:24:36;;;;;;;;;;;;;;;30.38;60.46;101147.59;5056320;27;69027;-44
2023/04/10 01:27:10;;;;;;;;;;;;;;;30.41;60.90;101147.16;5075426;27;65764;-45
2023/04/10 01:29:47;;;;;;;;;;;;;;;30.43;60.58;101150.50;5074278;27;70715;-44
2023/04/10 01:32:19;;;;;;;;;;;;;;;30.46;60.65;101150.06;5078217;27;67149;-44
2023/04/10 01:34:53;;;;;;;;;;;;;;;30.47;60.08;101151.72;5055715;28;70453;-44
2023/04/10 01:37:29;;;;;;;;;;;;;;;30.49;60.23;101150.47;5093758;27;66596;-43
2023/04/10 01:40:05;;;;;;;;;;;;;;;30.50;59.81;101143.19;5058206;27;70335;-43
2023/04/10 01:42:39;;;;;;;;;;;;;;;30.54;60.11;101154.44;5078553;27;65303;-43
2023/04/10 01:45:16;;;;;;;;;;;;;;;30.56;60.00;101158.56;5074945;27;69787;-44
2023/04/10 01:47:50;;;;;;;;;;;;;;;30.58;60.13;101156.50;5078608;27;66016;-44
2023/04/10 01:50:23;;;;;;;;;;;;;;;30.60;60.00;101157.13;5077254;27;68964;-44
2023/04/10 01:52:53;;;;;;;;;;;;;;;30.63;59.50;101156.69;5069703;27;65352;-43
2023/04/10 01:55:26;;;;;;;;;;;;;;;30.64;59.92;101158.34;5090439;27;69971;-44
2023/04/10 01:58:05;;;;;;;;;;;;;;;30.67;59.42;101157.94;5059087;28;66850;-43
2023/04/10 02:00:42;;;;;;;;;;;;;;;30.69;59.89;101160.44;5050377;28;70981;-43
2023/04/10 02:03:15;;;;;;;;;;;;;;;30.71;59.18;101164.59;5074690;27;66952;-44
2023/04/10 02:06:01;;;;;;;;;;;;;;;30.75;59.23;101158.75;5076167;27;69716;-43
2023/04/10 02:08:40;;;;;;;;;;;;;;;30.76;59.66;101160.41;5055303;28;66115;-45
2023/04/10 02:11:30;;;;;;;;;;;;;;;30.77;59.64;101168.31;5056935;27;70775;-44
2023/04/10 02:14:03;;;;;;;;;;;;;;;30.80;59.42;101161.69;5090651;27;66363;-43
2023/04/10 02:16:35;;;;;;;;;;;;;;;30.82;59.94;101159.59;5064018;28;68878;-45
2023/04/10 02:19:09;;;;;;;;;;;;;;;30.86;59.47;101155.41;5077151;27;67022;-44
2023/04/10 02:21:40;;;;;;;;;;;;;;;30.87;59.19;101151.63;5093081;27;70319;-44
2023/04/10 02:24:11;;;;;;;;;;;;;;;30.90;59.65;101156.66;5077154;27;67623;-44
2023/04/10 02:26:47;;;;;;;;;;;;;;;30.91;59.01;101147.47;5090432;27;70291;-44
2023/04/10 02:29:19;;;;;;;;;;;;;;;30.94;59.25;101141.63;5073710;27;64644;-43
2023/04/10 02:31:49;;;;;;;;;;;;;;;30.95;58.79;101143.28;5073553;27;70600;-44
2023/04/10 02:34:20;;;;;;;;;;;;;;;30.99;59.44;101143.69;5055917;27;66394;-44
2023/04/10 02:36:50;;;;;;;;;;;;;;;31.01;59.10;101142.44;5072790;27;69901;-43
2023/04/10 02:39:21;;;;;;;;;;;;;;;31.03;58.97;101134.91;5074367;27;65587;-44
2023/04/10 02:41:52;;;;;;;;;;;;;;;31.05;58.61;101132.81;5062498;28;70315;-44
2023/04/10 02:44:23;;;;;;;;;;;;;;;31.07;58.60;101133.44;5073210;27;67067;-43
2023/04/10 02:46:54;;;;;;;;;;;;;;;31.10;59.15;101127.59;5087714;27;68422;-42
2023/04/10 02:49:25;;;;;;;;;;;;;;;31.13;58.80;101129.03;5075605;27;66759;-44
2023/04/10 02:51:55;;;;;;;;;;;;;;;31.15;58.97;101111.53;5064491;27;71274;-43
2023/04/10 02:54:25;;;;;;;;;;;;;;;31.17;58.51;101114.00;5075276;27;66648;-44
2023/04/10 02:56:56;;;;;;;;;;;;;;;31.21;58.64;101109.00;5061827;27;70121;-42
2023/04/10 02:59:26;;;;;;;;;;;;;;;31.22;58.43;101106.06;5072160;27;67904;-43
2023/04/10 03:01:59;;;;;;;;;;;;;;;31.26;58.52;101103.72;5088521;27;69916;-43
2023/04/10 03:04:33;;;;;;;;;;;;;;;31.27;58.70;101100.00;5070424;27;66737;-43
2023/04/10 03:07:03;;;;;;;;;;;;;;;31.30;58.00;101107.69;5075435;27;70305;-43
2023/04/10 03:09:36;;;;;;;;;;;;;;;31.33;58.46;101107.25;5064933;27;65365;-43
2023/04/10 03:12:07;;;;;;;;;;;;;;;31.36;57.96;101096.00;5071050;27;72199;-44
2023/04/10 03:14:38;;;;;;;;;;;;;;;31.38;57.82;101097.44;5073382;27;66895;-43
2023/04/10 03:17:08;;;;;;;;;;;;;;;31.41;58.32;101100.78;5088824;27;69874;-44
2023/04/10 03:19:39;;;;;;;;;;;;;;;31.43;57.62;101102.22;5054163;28;66185;-44
2023/04/10 03:22:10;;;;;;;;;;;;;;;31.46;57.84;101095.53;5072115;27;69599;-43
2023/04/10 03:24:41;;;;;;;;;;;;;;;31.49;57.79;101095.91;5073614;27;66212;-43
2023/04/10 03:27:12;;;;;;;;;;;;;;;31.51;57.47;101099.25;5054443;27;69843;-43
2023/04/10 03:29:42;;;;;;;;;;;;;;;31.53;57.49;101091.69;5072623;27;66925;-43
2023/04/10 03:32:13;;;;;;;;;;;;;;;31.56;57.65;101087.72;5074195;27;70395;-44
2023/04/10 03:34:44;;;;;;;;;;;;;;;31.58;57.72;101083.75;5056225;27;67438;-43
2023/04/10 03:37:14;;;;;;;;;;;;;;;31.60;57.42;101076.22;5072598;27;69481;-43
2023/04/10 03:39:45;;;;;;;;;;;;;;;31.63;57.31;101074.94;5057340;28;66475;-43
2023/04/10 03:42:15;;;;;;;;;;;;;;;31.66;57.25;101062.84;5054966;27;70323;-44
2023/04/10 03:44:45;;;;;;;;;;;;;;;31.68;57.28;101063.41;5063477;27;66815;-48
2023/04/10 03:47:15;;;;;;;;;;;;;;;31.72;56.77;101064.66;5074151;27;68563;-44
2023/04/10 03:49:49;;;;;;;;;;;;;;;31.73;56.72;101061.72;5075703;27;65875;-44
2023/04/10 03:52:19;;;;;;;;;;;;;;;31.76;57.30;101061.28;5074095;27;69451;-43
2023/04/10 03:54:50;;;;;;;;;;;;;;;31.78;56.77;101055.63;5075690;27;66110;-43
2023/04/10 03:57:26;;;;;;;;;;;;;;;31.80;56.66;101048.09;5060623;28;69651;-43
2023/04/10 04:00:04;;;;;;;;;;;;;;;31.82;56.67;101051.44;5061057;28;65945;-46
2023/04/10 04:02:50;;;;;;;;;;;;;;;31.85;56.20;101037.41;5064198;28;70716;-43
2023/04/10 04:05:46;;;;;;;;;;;;;;;31.87;56.28;101043.44;5078463;27;65798;-45
2023/04/10 04:08:27;;;;;;;;;;;;;;;31.89;56.08;101038.63;5057137;28;69078;-45
2023/04/10 04:11:17;;;;;;;;;;;;;;;31.91;56.21;101039.25;5057261;27;66081;-44
2023/04/10 04:14:00;;;;;;;;;;;;;;;31.92;56.31;101032.78;5090958;27;70062;-44
2023/04/10 04:16:53;;;;;;;;;;;;;;;31.94;56.15;101022.53;5069854;27;66607;-44
2023/04/10 04:19:44;;;;;;;;;;;;;;;31.96;56.28;101020.44;5056641;27;70651;-44
2023/04/10 04:22:37;;;;;;;;;;;;;;;31.75;56.06;100977.41;5077759;27;65303;-44
2023/04/10 04:25:30;;;;;;;;;;;;;;;31.99;55.84;101006.41;5069183;27;70820;-44
2023/04/10 04:28:03;;;;;;;;;;;;;;;32.00;55.95;101005.34;5050546;28;65444;-43
2023/04/10 04:30:56;;;;;;;;;;;;;;;32.02;56.00;101003.25;5078423;27;69686;-51
2023/04/10 04:33:50;;;;;;;;;;;;;;;32.04;56.12;101003.03;5057880;27;66873;-45
2023/04/10 04:36:44;;;;;;;;;;;;;;;32.05;55.91;100997.38;5074528;27;69897;-44
2023/04/10 04:39:16;;;;;;;;;;;;;;;32.08;55.89;100989.84;5078010;27;66691;-43
2023/04/10 04:41:55;;;;;;;;;;;;;;;32.09;55.66;100986.06;5047951;27;70109;-45
2023/04/10 04:44:48;;;;;;;;;;;;;;;32.11;55.63;100990.22;5078957;27;66555;-44
2023/04/10 04:47:19;;;;;;;;;;;;;;;32.13;55.63;100979.97;5076167;27;69560;-44
2023/04/10 04:50:15;;;;;;;;;;;;;;;32.15;55.84;100977.00;5074032;27;66102;-45
2023/04/10 04:53:01;;;;;;;;;;;;;;;32.18;55.55;100973.84;5077219;27;68882;-44
2023/04/10 04:55:50;;;;;;;;;;;;;;;32.19;55.53;100964.66;5060169;28;66580;-46
2023/04/10 04:58:49;;;;;;;;;;;;;;;32.21;55.46;100957.94;5079483;27;68692;-44
2023/04/10 05:01:38;;;;;;;;;;;;;;;32.25;55.34;100958.31;5076851;27;66455;-44
2023/04/10 05:04:40;;;;;;;;;;;;;;;32.26;55.30;100943.66;5039160;27;70820;-49
2023/04/10 05:07:41;;;;;;;;;;;;;;;32.29;55.59;100943.25;5040533;28;66610;-44
2023/04/10 05:10:30;;;;;;;;;;;;;;;32.31;55.27;100941.09;5076397;27;70196;-44
2023/04/10 05:13:26;;;;;;;;;;;;;;;32.34;55.35;100939.81;5057722;27;66095;-44
2023/04/10 05:16:16;;;;;;;;;;;;;;;32.35;55.16;100922.50;5052874;28;70372;-44
2023/04/10 05:19:13;;;;;;;;;;;;;;;32.37;55.23;100913.03;5069633;27;66058;-46
2023/04/10 05:22:10;;;;;;;;;;;;;;;32.39;55.24;100913.66;5074339;27;70474;-43
2023/04/10 05:24:58;;;;;;;;;;;;;;;32.42;55.03;100904.22;5074031;27;66368;-44
2023/04/10 05:27:38;;;;;;;;;;;;;;;32.44;54.83;100897.50;5091167;27;70399;-44
2023/04/10 05:30:09;;;;;;;;;;;;;;;32.46;55.04;100889.97;5075935;27;65780;-43
2023/04/10 05:32:55;;;;;;;;;;;;;;;32.49;54.98;100886.81;5076683;27;70463;-44
2023/04/10 05:35:43;;;;;;;;;;;;;;;32.52;55.03;100884.69;5054588;28;66576;-45
2023/04/10 05:38:33;;;;;;;;;;;;;;;32.54;54.99;100874.41;5077470;27;69113;-43
2023/04/10 05:41:26;;;;;;;;;;;;;;;32.56;55.03;100873.13;5075997;27;65458;-43
2023/04/10 05:44:23;;;;;;;;;;;;;;;32.58;55.23;100862.03;5076491;27;69014;-44
2023/04/10 05:47:16;;;;;;;;;;;;;;;32.59;55.21;100855.53;5069040;27;66560;-45
2023/04/10 05:50:12;;;;;;;;;;;;;;;32.62;55.20;100855.06;5072273;27;71312;-44
2023/04/10 05:53:02;;;;;;;;;;;;;;;32.63;54.94;100851.31;5065747;27;67145;-44
2023/04/10 05:56:02;;;;;;;;;;;;;;;32.65;55.09;100849.16;5057058;27;70070;-44
2023/04/10 05:58:58;;;;;;;;;;;;;;;32.66;55.19;100845.41;5057507;27;66768;-43
2023/04/10 06:01:51;;;;;;;;;;;;;;;32.67;55.15;100831.56;5068093;27;70603;-44
2023/04/10 06:04:22;;;;;;;;;;;;;;;32.69;54.95;100829.47;5074899;27;66879;-43
2023/04/10 06:06:56;;;;;;;;;;;;;;;32.71;54.88;100810.22;5061155;28;70252;-44
2023/04/10 06:09:27;;;;;;;;;;;;;;;32.71;54.87;100804.81;5073015;27;66792;-44
2023/04/10 06:11:58;;;;;;;;;;;;;;;32.74;54.85;100798.91;5075823;27;70346;-44
2023/04/10 06:14:28;;;;;;;;;;;;;;;32.78;54.63;100793.81;5093010;27;66062;-44
2023/04/10 06:16:59;;;;;;;;;;;;;;;32.78;54.77;100783.75;5055137;27;69859;-44
2023/04/10 06:19:30;;;;;;;;;;;;;;;32.81;54.65;100788.72;5059864;27;67293;-45
2023/04/10 06:22:00;;;;;;;;;;;;;;;32.85;54.77;100772.78;5076592;27;70601;-44
2023/04/10 06:24:31;;;;;;;;;;;;;;;32.85;54.69;100773.63;5077744;27;66432;-44
2023/04/10 06:27:01;;;;;;;;;;;;;;;32.87;54.37;100760.59;5059494;28;70766;-44
2023/04/10 06:29:31;;;;;;;;;;;;;;;32.90;54.52;100752.00;5061534;28;66556;-45
2023/04/10 06:32:01;;;;;;;;;;;;;;;32.91;54.61;100745.50;5060287;27;70313;-44
2023/04/10 06:34:36;;;;;;;;;;;;;;;32.94;54.72;100742.31;5088638;27;66118;-45
2023/04/10 06:37:08;;;;;;;;;;;;;;;32.97;54.73;100737.47;5091386;27;70019;-43
2023/04/10 06:39:39;;;;;;;;;;;;;;;32.99;54.42;100729.88;5072975;27;66133;-45
2023/04/10 06:42:09;;;;;;;;;;;;;;;33.00;54.51;100723.44;5075015;27;70364;-43
2023/04/10 06:44:54;;;;;;;;;;;;;;;33.04;54.32;100721.88;5086793;27;66077;-44
2023/04/10 06:47:24;;;;;;;;;;;;;;;33.05;54.12;100707.25;5078467;27;70471;-46
2023/04/10 06:49:54;;;;;;;;;;;;;;;33.07;54.11;100705.09;5077523;27;66709;-44
2023/04/10 06:52:25;;;;;;;;;;;;;;;33.11;54.13;100695.41;5077725;27;70396;-44
2023/04/10 06:54:55;;;;;;;;;;;;;;;33.13;54.08;100693.28;5076852;27;66442;-44
2023/04/10 06:57:25;;;;;;;;;;;;;;;33.17;54.14;100690.91;5069530;27;69463;-45
2023/04/10 06:59:55;;;;;;;;;;;;;;;33.18;54.16;100687.94;5076848;27;65742;-43
2023/04/10 07:02:25;;;;;;;;;;;;;;;33.21;54.10;100684.75;5077355;27;70590;-48
2023/04/10 07:04:56;;;;;;;;;;;;;;;33.24;53.74;100683.41;5075811;27;65878;-45
2023/04/10 07:07:26;;;;;;;;;;;;;;;33.26;53.62;100671.25;5079693;27;70608;-44
2023/04/10 07:09:56;;;;;;;;;;;;;;;33.30;54.01;100672.41;5076946;27;67110;-44
2023/04/10 07:12:26;;;;;;;;;;;;;;;33.32;53.68;100670.28;5071154;27;69917;-45
2023/04/10 07:14:57;;;;;;;;;;;;;;;33.36;53.73;100671.44;5076901;27;66376;-43
2023/04/10 07:17:28;;;;;;;;;;;;;;;33.39;53.61;100664.69;5078577;27;70104;-45
2023/04/10 07:19:58;;;;;;;;;;;;;;;33.41;53.34;100656.31;5075652;27;66511;-44
2023/04/10 07:22:29;;;;;;;;;;;;;;;33.43;53.61;100654.16;5075893;27;70101;-44
2023/04/10 07:24:59;;;;;;;;;;;;;;;33.44;53.45;100656.66;5080724;27;66539;-44
2023/04/10 07:27:30;;;;;;;;;;;;;;;33.47;53.92;100655.34;5080274;27;70057;-43
2023/04/10 07:30:00;;;;;;;;;;;;;;;33.49;53.34;100655.91;5077616;27;66638;-43
2023/04/10 07:32:31;;;;;;;;;;;;;;;33.51;53.55;100651.88;5081816;27;69845;-43
2023/04/10 07:35:02;;;;;;;;;;;;;;;33.54;53.52;100651.44;5079134;27;66677;-43
2023/04/10 07:37:32;;;;;;;;;;;;;;;33.56;53.08;100659.34;5079219;27;70262;-42
2023/04/10 07:40:02;;;;;;;;;;;;;;;33.58;53.55;100646.31;5082254;28;66158;-44
2023/04/10 07:42:32;;;;;;;;;;;;;;;33.59;53.44;100642.53;5078130;27;69544;-43
2023/04/10 07:45:03;;;;;;;;;;;;;;;33.61;53.50;100634.97;5081419;27;66054;-44
2023/04/10 07:47:33;;;;;;;;;;;;;;;33.63;53.24;100632.81;5067009;28;70786;-44
2023/04/10 07:50:04;;;;;;;;;;;;;;;33.65;53.20;100635.28;5063923;27;65421;-44
2023/04/10 07:52:34;;;;;;;;;;;;;;;33.67;53.19;100633.97;5079886;27;70448;-44
2023/04/10 07:55:04;;;;;;;;;;;;;;;33.69;53.36;100631.00;5079101;27;66796;-44
2023/04/10 07:57:35;;;;;;;;;;;;;;;33.72;53.08;100636.78;5047957;28;69091;-44
2023/04/10 08:00:06;;;;;;;;;;;;;;;33.74;52.96;100631.94;5094652;27;65334;-43
2023/04/10 08:02:43;;;;;;;;;;;;;;;33.76;53.27;100632.47;5082474;27;69548;-43
2023/04/10 08:05:13;;;;;;;;;;;;;;;33.79;52.74;100631.16;5079692;27;66178;-43
2023/04/10 08:07:44;;;;;;;;;;;;;;;33.84;52.94;100627.72;5081548;27;70265;-44
2023/04/10 08:10:15;;;;;;;;;;;;;;;33.85;53.11;100618.47;5096693;27;65729;-44
2023/04/10 08:12:45;;;;;;;;;;;;;;;33.88;53.10;100613.38;5074933;27;69556;-44
2023/04/10 08:15:17;;;;;;;;;;;;;;;33.89;52.57;100608.75;5081267;27;66687;-43
2023/04/10 08:17:48;;;;;;;;;;;;;;;33.91;52.87;100606.63;5080582;27;69735;-43
2023/04/10 08:20:18;;;;;;;;;;;;;;;33.94;52.83;100611.56;5057460;28;65406;-44
2023/04/10 08:22:49;;;;;;;;;;;;;;;33.95;52.57;100605.03;5079617;27;69730;-43
2023/04/10 08:25:19;;;;;;;;;;;;;;;33.96;52.82;100599.38;5081347;27;66662;-44
2023/04/10 08:27:50;;;;;;;;;;;;;;;33.96;52.67;100599.38;5078508;27;69874;-45
2023/04/10 08:30:20;;;;;;;;;;;;;;;33.97;52.47;100605.63;5058181;28;66123;-43
2023/04/10 08:32:51;;;;;;;;;;;;;;;33.97;52.76;100602.91;5081316;27;70319;-44
2023/04/10 08:35:21;;;;;;;;;;;;;;;33.99;52.63;100603.47;5078694;27;66201;-43
2023/04/10 08:37:51;;;;;;;;;;;;;;;34.00;52.82;100603.22;5061968;28;69258;-44
2023/04/10 08:40:43;;;;;;;;;;;;;;;34.01;52.88;100601.31;5078788;27;66681;-42
2023/04/10 08:43:13;;;;;;;;;;;;;;;34.02;52.72;100590.22;5080223;27;69777;-45
2023/04/10 08:45:43;;;;;;;;;;;;;;;34.02;52.90;100608.44;5078422;27;66392;-44
2023/04/10 08:48:15;;;;;;;;;;;;;;;34.04;52.63;100606.28;5063206;27;70042;-43
2023/04/10 08:50:46;;;;;;;;;;;;;;;34.05;53.13;100597.09;5078786;27;66209;-44
2023/04/10 08:53:19;;;;;;;;;;;;;;;34.07;53.20;100584.03;5080072;27;70398;-44
2023/04/10 08:55:49;;;;;;;;;;;;;;;34.08;53.03;100590.31;5078886;27;65725;-44
2023/04/10 08:58:19;;;;;;;;;;;;;;;34.08;53.08;100596.59;5077843;27;69857;-44
2023/04/10 09:00:50;;;;;;;;;;;;;;;34.10;53.15;100601.75;5077255;27;66570;-43
2023/04/10 09:03:20;;;;;;;;;;;;;;;34.11;53.23;100606.16;5059880;27;69953;-44
2023/04/10 09:05:51;;;;;;;;;;;;;;;34.11;53.40;100604.25;5063048;28;65634;-44
2023/04/10 09:08:21;;;;;;;;;;;;;;;34.11;53.47;100615.13;5075570;27;69841;-43
2023/04/10 09:10:51;;;;;;;;;;;;;;;34.11;53.23;100606.97;5079587;27;65595;-43
2023/04/10 09:13:45;;;;;;;;;;;;;;;34.12;53.86;100614.03;5079089;27;70759;-43
2023/04/10 09:16:15;;;;;;;;;;;;;;;34.13;54.10;100618.44;5075038;27;66496;-44
2023/04/10 09:18:47;;;;;;;;;;;;;;;34.11;54.26;100598.81;5077180;27;70493;-45
2023/04/10 09:21:18;;;;;;;;;;;;;;;34.13;54.33;100607.56;5059054;28;66156;-44
2023/04/10 09:23:58;;;;;;;;;;;;;;;34.13;54.24;100609.41;5045313;28;69955;-44
2023/04/10 09:26:32;;;;;;;;;;;;;;;34.13;54.23;100604.84;5079031;27;65151;-43
2023/04/10 09:29:04;;;;;;;;;;;;;;;34.13;54.42;100604.84;5078100;27;70736;-44
2023/04/10 09:31:35;;;;;;;;;;;;;;;34.12;54.50;100605.88;5071267;27;66825;-45
2023/04/10 09:34:26;;;;;;;;;;;;;;;34.12;55.00;100614.03;5077650;27;70036;-44
2023/04/10 09:36:57;;;;;;;;;;;;;;;34.11;54.94;100606.97;5061182;28;65501;-46
2023/04/10 09:39:35;;;;;;;;;;;;;;;34.10;55.28;100613.50;5075096;27;70062;-45
2023/04/10 09:42:06;;;;;;;;;;;;;;;34.10;55.19;100605.34;5079927;27;65745;-43
2023/04/10 09:44:37;;;;;;;;;;;;;;;34.10;55.47;100618.09;5077679;27;70379;-43
2023/04/10 09:47:14;;;;;;;;;;;;;;;34.08;55.31;100601.22;5092004;27;66191;-43
2023/04/10 09:49:47;;;;;;;;;;;;;;;34.09;55.40;100608.28;5087841;27;69754;-44
2023/04/10 09:52:19;;;;;;;;;;;;;;;34.07;55.58;100611.25;5059088;28;66636;-45
2023/04/10 09:54:51;;;;;;;;;;;;;;;34.08;55.14;100618.34;5055172;28;70300;-44
2023/04/10 09:57:21;;;;;;;;;;;;;;;34.05;55.72;100613.41;5060125;28;66432;-45
2023/04/10 09:59:53;;;;;;;;;;;;;;;34.03;55.46;100620.97;5074049;27;69477;-44
2023/04/10 10:02:24;;;;;;;;;;;;;;;34.02;55.41;100616.59;5090734;27;65584;-44
2023/04/10 10:04:57;;;;;;;;;;;;;;;34.02;55.46;100624.78;5074638;27;69417;-44
2023/04/10 10:07:29;;;;;;;;;;;;;;;34.00;55.63;100621.47;5076042;28;66488;-45
2023/04/10 10:10:00;;;;;;;;;;;;;;;33.98;55.91;100615.44;5051589;27;69755;-44
2023/04/10 10:12:56;;;;;;;;;;;;;;;33.98;56.04;100607.28;5074375;27;66574;-42
2023/04/10 10:15:45;;;;;;;;;;;;;;;33.97;55.80;100611.06;5076452;27;69157;-44
2023/04/10 10:18:34;;;;;;;;;;;;;;;33.96;56.06;100612.13;5073752;27;66241;-43
2023/04/10 10:21:05;;;;;;;;;;;;;;;33.94;55.83;100622.47;5075121;27;69705;-44
2023/04/10 10:23:36;;;;;;;;;;;;;;;33.92;55.75;100632.75;5076121;27;66151;-44
2023/04/10 10:26:07;;;;;;;;;;;;;;;33.90;56.19;100640.34;5075317;27;70802;-44
2023/04/10 10:28:38;;;;;;;;;;;;;;;33.88;56.10;100628.88;5063734;28;66457;-43
2023/04/10 10:31:09;;;;;;;;;;;;;;;33.87;56.33;100630.75;5076285;27;69346;-42
2023/04/10 10:33:40;;;;;;;;;;;;;;;33.85;56.01;100641.09;5077318;27;66897;-45
2023/04/10 10:36:12;;;;;;;;;;;;;;;33.87;56.21;100640.81;5057731;28;69909;-45
2023/04/10 10:38:47;;;;;;;;;;;;;;;33.84;56.10;100639.41;5075686;27;66841;-44
2023/04/10 10:41:25;;;;;;;;;;;;;;;33.82;56.57;100647.00;5058967;28;70162;-45
2023/04/10 10:43:55;;;;;;;;;;;;;;;33.79;56.29;100642.06;5076924;27;65213;-46
2023/04/10 10:46:28;;;;;;;;;;;;;;;33.80;56.48;100649.16;5075883;27;69508;-43
2023/04/10 10:48:59;;;;;;;;;;;;;;;33.79;56.88;100647.50;5073641;27;66415;-46
2023/04/10 10:51:49;;;;;;;;;;;;;;;33.74;57.90;100648.25;5037838;28;70112;-44
2023/04/10 10:54:29;;;;;;;;;;;;;;;33.71;59.03;100646.03;5074409;27;65500;-47
2023/04/10 10:57:00;;;;;;;;;;;;;;;33.72;58.86;100647.66;5073402;27;69531;-45
2023/04/10 10:59:42;;;;;;;;;;;;;;;33.74;59.26;100659.13;5088922;27;66716;-45
2023/04/10 11:02:16;;;;;;;;;;;;;;;33.70;59.77;100660.69;5074280;27;69930;-45
2023/04/10 11:04:48;;;;;;;;;;;;;;;33.72;60.33;100669.44;5076829;27;66607;-45
2023/04/10 11:07:18;;;;;;;;;;;;;;;33.71;60.60;100672.38;5075660;27;70695;-45
2023/04/10 11:09:48;;;;;;;;;;;;;;;33.68;61.17;100684.56;5077584;27;66865;-44
2023/04/10 11:12:20;;;;;;;;;;;;;;;33.73;60.50;100681.13;5076138;27;68794;-46
2023/04/10 11:15:01;;;;;;;;;;;;;;;33.72;60.12;100691.19;5074836;27;65879;-44
2023/04/10 11:17:51;;;;;;;;;;;;;;;33.72;59.91;100685.75;5078719;27;70255;-45
2023/04/10 11:20:24;;;;;;;;;;;;;;;33.71;59.72;100703.16;5078437;27;66317;-46
2023/04/10 11:23:09;;;;;;;;;;;;;;;33.70;59.62;100709.63;5078527;27;70486;-46
2023/04/10 11:25:50;;;;;;;;;;;;;;;33.68;59.88;100713.66;5077728;27;65473;-44
2023/04/10 11:28:32;;;;;;;;;;;;;;;33.68;59.77;100717.22;5077671;27;69749;-45
2023/04/10 11:31:20;;;;;;;;;;;;;;;33.68;59.42;100722.66;5069628;27;66203;-44
2023/04/10 11:33:52;;;;;;;;;;;;;;;33.65;59.66;100722.31;5074319;27;69635;-51
2023/04/10 11:36:23;;;;;;;;;;;;;;;33.62;59.68;100718.19;5077275;28;66502;-44
2023/04/10 11:39:07;;;;;;;;;;;;;;;33.64;59.61;100726.13;5078006;27;70075;-44
2023/04/10 11:41:41;;;;;;;;;;;;;;;33.63;59.78;100725.31;5078291;28;67325;-46
2023/04/10 11:44:13;;;;;;;;;;;;;;;33.61;59.99;100734.78;5074803;27;70606;-44
2023/04/10 11:46:49;;;;;;;;;;;;;;;33.59;59.70;100741.25;5078281;27;66337;-44
2023/04/10 11:49:21;;;;;;;;;;;;;;;33.57;60.04;100743.41;5075953;27;69812;-44
2023/04/10 11:51:51;;;;;;;;;;;;;;;33.57;60.22;100742.56;5074428;27;64938;-46
2023/04/10 11:54:23;;;;;;;;;;;;;;;33.56;60.26;100740.94;5072643;27;69724;-45
2023/04/10 11:57:01;;;;;;;;;;;;;;;33.54;60.26;100740.34;5061502;28;67534;-44
2023/04/10 11:59:32;;;;;;;;;;;;;;;33.53;60.27;100746.84;5073165;27;69558;-44
2023/04/10 12:02:15;;;;;;;;;;;;;;;33.52;60.09;100746.03;5080472;27;67009;-45
2023/04/10 12:04:56;;;;;;;;;;;;;;;33.51;60.48;100748.94;5075533;27;70151;-45
2023/04/10 12:07:28;;;;;;;;;;;;;;;33.45;62.17;100749.91;5060374;28;66885;-44
2023/04/10 12:10:00;;;;;;;;;;;;;;;33.32;63.46;100749.13;5079215;27;69754;-45
2023/04/10 12:12:36;;;;;;;;;;;;;;;33.22;64.21;100762.50;5079391;27;66110;-44
2023/04/10 12:15:26;;;;;;;;;;;;;;;33.15;64.79;100757.22;5082201;27;68921;-45
2023/04/10 12:17:57;;;;;;;;;;;;;;;33.06;65.07;100765.94;5062846;27;66235;-44
2023/04/10 12:20:28;;;;;;;;;;;;;;;33.03;65.35;100769.16;5074523;27;70373;-45
2023/04/10 12:23:01;;;;;;;;;;;;;;;33.00;65.53;100775.06;5079295;27;67128;-45
2023/04/10 12:25:32;;;;;;;;;;;;;;;32.97;65.57;100780.94;5082616;27;70462;-45
2023/04/10 12:28:02;;;;;;;;;;;;;;;32.94;66.11;100783.06;5061882;27;65528;-46
2023/04/10 12:30:33;;;;;;;;;;;;;;;32.91;65.88;100794.41;5094432;27;70018;-46
2023/04/10 12:33:06;;;;;;;;;;;;;;;32.87;65.73;100798.63;5060038;27;65547;-46
2023/04/10 12:35:41;;;;;;;;;;;;;;;32.85;65.88;100806.22;5078634;27;70268;-44
2023/04/10 12:38:11;;;;;;;;;;;;;;;32.82;65.78;100803.13;5094532;27;66385;-44
2023/04/10 12:40:57;;;;;;;;;;;;;;;32.78;65.68;100808.22;5081891;27;70640;-45
2023/04/10 12:43:32;;;;;;;;;;;;;;;32.76;65.79;100801.34;5080374;28;67364;-45
2023/04/10 12:46:25;;;;;;;;;;;;;;;32.74;65.77;100809.75;5061362;28;70636;-43
2023/04/10 12:48:55;;;;;;;;;;;;;;;32.72;66.23;100817.31;5078102;27;66754;-41
2023/04/10 12:51:42;;;;;;;;;;;;;;;32.66;65.75;100818.25;5081069;28;70557;-42
2023/04/10 12:54:32;;;;;;;;;;;;;;;32.58;65.15;100810.44;5078116;27;66415;-42
2023/04/10 12:57:03;;;;;;;;;;;;;;;32.55;65.45;100819.06;5079412;27;70509;-42
2023/04/10 12:59:33;;;;;;;;;;;;;;;32.52;65.27;100827.69;5080084;27;66173;-42
2023/04/10 13:02:03;;;;;;;;;;;;;;;32.49;65.19;100839.81;5080874;27;69870;-42
2023/04/10 13:04:33;;;;;;;;;;;;;;;32.44;65.58;100856.78;5079834;27;66370;-43
2023/04/10 13:07:04;;;;;;;;;;;;;;;32.43;65.91;100863.28;5073116;27;69769;-41
2023/04/10 13:09:35;;;;;;;;;;;;;;;32.38;64.66;100868.56;5080768;27;65513;-41
2023/04/10 13:12:06;;;;;;;;;;;;;;;32.21;61.71;100865.66;5079168;27;70040;-41
2023/04/10 13:14:36;;;;;;;;;;;;;;;32.09;61.18;100875.63;5080022;27;66854;-42
2023/04/10 13:17:07;;;;;;;;;;;;;;;31.96;60.95;100879.34;5078806;27;68532;-42
2023/04/10 13:19:37;;;;;;;;;;;;;;;31.87;60.18;100886.09;5080220;27;67023;-43